Time;durP1;ratioP1;P1;durP2;ratioP2;P2;SDS_P1;SDS_P2;PMS_P1;PMS_P2;Temp;Humidity;BMP_temperature;BMP_pressure;BME280_temperature;BME280_humidity;BME280_pressure;Samples;Min_cycle;Max_cycle;Signal;HPM_P1;HPM_P2
2021/07/18 00:00:21;;;;;;;1999.90;999.90;;;;;;;23.07;61.56;94817.47;5092268;28;20279;-65
2021/07/18 00:02:48;;;;;;;1999.90;999.90;;;;;;;23.07;61.55;94810.28;5092012;28;20672;-65
2021/07/18 00:05:15;;;;;;;1999.90;999.90;;;;;;;23.16;60.71;94821.19;5092252;28;20223;-65
2021/07/18 00:07:44;;;;;;;1999.90;999.90;;;;;;;23.15;60.87;94811.00;5092253;28;20199;-65
2021/07/18 00:10:12;;;;;;;1999.90;999.90;;;;;;;23.18;60.56;94816.25;5091712;28;20233;-65
2021/07/18 00:12:40;;;;;;;1999.90;999.90;;;;;;;23.14;60.63;94815.53;5092034;28;20253;-65
2021/07/18 00:15:10;;;;;;;1999.90;999.90;;;;;;;23.14;61.10;94809.47;5091691;28;20195;-65
2021/07/18 00:17:39;;;;;;;1999.90;999.90;;;;;;;23.20;60.98;94809.81;5091487;28;20300;-65
2021/07/18 00:20:09;;;;;;;1999.90;999.90;;;;;;;23.23;60.31;94809.03;5092056;28;20731;-65
2021/07/18 00:22:36;;;;;;;1999.90;999.90;;;;;;;23.17;60.72;94814.75;5092181;28;20693;-66
2021/07/18 00:25:06;;;;;;;1999.90;999.90;;;;;;;23.16;60.87;94807.94;5091909;28;20222;-64
2021/07/18 00:27:34;;;;;;;1999.90;999.90;;;;;;;23.14;60.77;94804.94;5091680;28;20635;-65
2021/07/18 00:30:01;;;;;;;1999.90;999.90;;;;;;;23.15;61.03;94806.44;5091506;28;20591;-65
2021/07/18 00:32:28;;;;;;;1999.90;999.90;;;;;;;23.21;60.58;94803.38;5091529;28;20200;-65
2021/07/18 00:34:56;;;;;;;1999.90;999.90;;;;;;;23.12;61.09;94795.84;5091567;28;20199;-64
2021/07/18 00:37:23;;;;;;;1999.90;999.90;;;;;;;23.11;60.75;94804.97;5091477;28;20912;-65
2021/07/18 00:39:50;;;;;;;1999.90;999.90;;;;;;;23.08;61.52;94805.72;5091159;28;20200;-65
2021/07/18 00:42:19;;;;;;;1999.90;999.90;;;;;;;23.03;61.34;94804.25;5091229;28;20943;-65
2021/07/18 00:44:47;;;;;;;1999.90;999.90;;;;;;;22.97;62.05;94805.81;5091113;28;20200;-65
2021/07/18 00:47:14;;;;;;;1999.90;999.90;;;;;;;22.82;62.86;94814.22;5109761;28;20191;-66
2021/07/18 00:49:42;;;;;;;1999.90;999.90;;;;;;;22.80;62.41;94813.88;5111534;28;20202;-67
2021/07/18 00:52:09;;;;;;;1999.90;999.90;;;;;;;22.74;62.81;94805.59;5111350;28;20205;-66
2021/07/18 00:54:36;;;;;;;1999.90;999.90;;;;;;;22.73;63.45;94804.06;5111045;28;20710;-65
2021/07/18 00:57:06;;;;;;;1999.90;999.90;;;;;;;22.72;63.15;94802.56;5111558;28;20781;-65
2021/07/18 00:59:36;;;;;;;1999.90;999.90;;;;;;;22.66;64.02;94809.38;5111439;28;20241;-65
2021/07/18 01:02:03;;;;;;;1999.90;999.90;;;;;;;22.51;65.47;94805.31;5111329;28;20590;-65
2021/07/18 01:04:31;;;;;;;1999.90;999.90;;;;;;;22.26;67.11;94803.53;5107895;28;20195;-65
2021/07/18 01:06:58;;;;;;;1999.90;999.90;;;;;;;22.09;67.91;94804.34;5090903;28;20671;-65
2021/07/18 01:09:25;;;;;;;1999.90;999.90;;;;;;;22.02;68.77;94801.69;5090882;28;20265;-65
2021/07/18 01:11:53;;;;;;;1999.90;999.90;;;;;;;21.89;69.17;94795.28;5090740;28;20428;-65
2021/07/18 01:14:20;;;;;;;1999.90;999.90;;;;;;;21.83;70.22;94804.75;5090536;28;20196;-65
2021/07/18 01:16:49;;;;;;;1999.90;999.90;;;;;;;21.89;69.79;94797.94;5090838;28;20219;-66
2021/07/18 01:19:20;;;;;;;1999.90;999.90;;;;;;;21.86;69.85;94793.41;5090562;28;20226;-65
2021/07/18 01:21:58;;;;;;;1999.90;999.90;;;;;;;21.81;70.74;94794.56;5090736;28;20257;-66
2021/07/18 01:24:25;;;;;;;1999.90;999.90;;;;;;;21.80;70.87;94793.06;5090594;28;20188;-66
2021/07/18 01:26:53;;;;;;;1999.90;999.90;;;;;;;21.76;71.14;94791.56;5090356;28;20192;-65
2021/07/18 01:29:20;;;;;;;1999.90;999.90;;;;;;;21.66;71.55;94797.63;5089266;28;20672;-65
2021/07/18 01:31:47;;;;;;;1999.90;999.90;;;;;;;21.55;72.42;94794.22;5090612;28;20195;-65
2021/07/18 01:34:14;;;;;;;1999.90;999.90;;;;;;;21.53;72.30;94791.19;5090399;28;20211;-65
2021/07/18 01:36:42;;;;;;;1999.90;999.90;;;;;;;21.47;72.68;94790.81;5090447;28;20590;-65
2021/07/18 01:39:12;;;;;;;1999.90;999.90;;;;;;;21.35;73.31;94791.22;5090091;28;20203;-65
2021/07/18 01:41:40;;;;;;;1999.90;999.90;;;;;;;21.24;73.99;94795.75;5090539;28;20192;-64
2021/07/18 01:44:08;;;;;;;1999.90;999.90;;;;;;;21.12;74.62;94793.47;5090226;28;20203;-65
2021/07/18 01:46:36;;;;;;;1999.90;999.90;;;;;;;21.13;74.72;94795.72;5102912;28;20222;-64
2021/07/18 01:49:06;;;;;;;1999.90;999.90;;;;;;;21.05;75.00;94791.56;5110246;28;20210;-65
2021/07/18 01:51:33;;;;;;;1999.90;999.90;;;;;;;20.99;75.21;94791.19;5110587;28;20420;-65
2021/07/18 01:54:02;;;;;;;1999.90;999.90;;;;;;;21.01;75.28;94790.81;5109951;28;20242;-66
2021/07/18 01:56:31;;;;;;;1999.90;999.90;;;;;;;21.04;75.22;94793.47;5110406;28;20240;-66
2021/07/18 01:58:58;;;;;;;1999.90;999.90;;;;;;;21.01;75.29;94796.09;5110376;28;20223;-66
2021/07/18 02:01:27;;;;;;;1999.90;999.90;;;;;;;20.94;75.39;94788.16;5110083;28;20655;-65
2021/07/18 02:03:55;;;;;;;1999.90;999.90;;;;;;;20.83;75.95;94787.38;5110330;28;20248;-66
2021/07/18 02:06:22;;;;;;;1999.90;999.90;;;;;;;20.84;76.08;94791.53;5110331;28;20257;-66
2021/07/18 02:08:50;;;;;;;1999.90;999.90;;;;;;;20.78;76.42;94783.22;5110033;27;21001;-65
2021/07/18 02:11:18;;;;;;;1999.90;999.90;;;;;;;20.76;76.70;94790.03;5110086;28;20195;-66
2021/07/18 02:13:48;;;;;;;1999.90;999.90;;;;;;;20.74;76.61;94789.63;5110371;28;20674;-66
2021/07/18 02:16:15;;;;;;;1999.90;999.90;;;;;;;20.67;76.80;94785.13;5104462;28;20575;-66
2021/07/18 02:18:43;;;;;;;1999.90;999.90;;;;;;;20.69;77.19;94785.47;5103170;28;20280;-65
2021/07/18 02:21:10;;;;;;;1999.90;999.90;;;;;;;20.76;76.64;94785.50;5109721;28;20191;-65
2021/07/18 02:23:37;;;;;;;1999.90;999.90;;;;;;;20.72;76.81;94781.34;5109575;28;20206;-66
2021/07/18 02:26:05;;;;;;;1999.90;999.90;;;;;;;20.64;77.15;94788.50;5109604;28;20199;-65
2021/07/18 02:28:32;;;;;;;1999.90;999.90;;;;;;;20.48;77.97;94791.47;5109684;28;20201;-65
2021/07/18 02:31:04;;;;;;;1999.90;999.90;;;;;;;20.47;78.04;94797.88;5109827;28;20560;-65
2021/07/18 02:33:31;;;;;;;1999.90;999.90;;;;;;;20.40;78.37;94791.81;5109681;28;20179;-65
2021/07/18 02:35:59;;;;;;;1999.90;999.90;;;;;;;20.48;77.89;94798.63;5109818;28;20217;-68
2021/07/18 02:38:27;;;;;;;1999.90;999.90;;;;;;;20.44;78.17;94798.63;5109446;28;20771;-65
2021/07/18 02:40:54;;;;;;;1999.90;999.90;;;;;;;20.30;78.49;94790.63;5109527;28;20202;-66
2021/07/18 02:43:21;;;;;;;1999.90;999.90;;;;;;;20.25;78.83;94792.88;5109424;28;20202;-65
2021/07/18 02:45:48;;;;;;;1999.90;999.90;;;;;;;20.16;79.32;94798.50;5092812;28;20203;-66
2021/07/18 02:48:17;;;;;;;1999.90;999.90;;;;;;;20.05;79.81;94800.34;5089211;28;20280;-66
2021/07/18 02:50:44;;;;;;;1999.90;999.90;;;;;;;19.99;80.00;94789.38;5089033;28;20196;-63
2021/07/18 02:53:12;;;;;;;1999.90;999.90;;;;;;;20.05;79.95;94809.00;5089335;28;20195;-66
2021/07/18 02:55:39;;;;;;;1999.90;999.90;;;;;;;19.88;80.61;94799.09;5088840;28;20263;-66
2021/07/18 02:58:06;;;;;;;1999.90;999.90;;;;;;;19.91;80.62;94800.25;5089019;28;20268;-65
2021/07/18 03:00:33;;;;;;;1999.90;999.90;;;;;;;19.89;80.64;94805.91;5088990;28;20188;-65
2021/07/18 03:03:00;;;;;;;1999.90;999.90;;;;;;;19.81;81.00;94812.28;5091390;28;20196;-65
2021/07/18 03:05:29;;;;;;;1999.90;999.90;;;;;;;19.77;81.21;94808.88;5109136;28;20742;-65
2021/07/18 03:07:56;;;;;;;1999.90;999.90;;;;;;;19.62;81.95;94817.81;5109483;28;20622;-65
2021/07/18 03:10:23;;;;;;;1999.90;999.90;;;;;;;19.68;81.92;94817.06;5109079;28;20202;-65
2021/07/18 03:12:50;;;;;;;1999.90;999.90;;;;;;;19.65;82.02;94817.81;5109017;28;20203;-66
2021/07/18 03:15:18;;;;;;;1999.90;999.90;;;;;;;19.60;82.17;94807.63;5109350;28;20253;-65
2021/07/18 03:17:45;;;;;;;1999.90;999.90;;;;;;;19.66;81.92;94815.94;5109339;28;20227;-65
2021/07/18 03:20:15;;;;;;;1999.90;999.90;;;;;;;19.61;82.19;94818.94;5109463;28;20199;-65
2021/07/18 03:22:44;;;;;;;1999.90;999.90;;;;;;;19.60;82.25;94818.16;5109481;28;20971;-65
2021/07/18 03:25:14;;;;;;;1999.90;999.90;;;;;;;19.68;81.67;94816.31;5109105;28;20199;-66
2021/07/18 03:27:42;;;;;;;1999.90;999.90;;;;;;;19.80;81.02;94812.63;5109046;28;20678;-66
2021/07/18 03:30:11;;;;;;;1999.90;999.90;;;;;;;19.83;80.71;94817.91;5109281;28;20206;-65
2021/07/18 03:32:39;;;;;;;1999.90;999.90;;;;;;;19.65;81.80;94823.09;5108962;28;20199;-66
2021/07/18 03:35:08;;;;;;;1999.90;999.90;;;;;;;19.71;81.37;94821.63;5108995;28;20199;-65
2021/07/18 03:37:36;;;;;;;1999.90;999.90;;;;;;;19.84;81.06;94835.25;5109151;28;20227;-65
2021/07/18 03:40:05;;;;;;;1999.90;999.90;;;;;;;19.84;80.61;94829.22;5108976;28;21026;-65
2021/07/18 03:42:32;;;;;;;1999.90;999.90;;;;;;;19.89;80.60;94832.28;5108890;28;20596;-66
2021/07/18 03:44:59;;;;;;;1999.90;999.90;;;;;;;19.99;79.82;94831.56;5100083;28;20672;-66
2021/07/18 03:47:26;;;;;;;1999.90;999.90;;;;;;;19.99;79.90;94836.84;5088436;28;20238;-66
2021/07/18 03:49:53;;;;;;;1999.90;999.90;;;;;;;20.17;79.05;94829.78;5088424;28;20234;-65
2021/07/18 03:52:20;;;;;;;1999.90;999.90;;;;;;;20.22;78.62;94833.97;5090899;28;20223;-65
2021/07/18 03:54:48;;;;;;;1999.90;999.90;;;;;;;20.28;78.18;94827.19;5092129;28;20227;-65
2021/07/18 03:57:16;;;;;;;1999.90;999.90;;;;;;;20.33;78.12;94834.00;5091912;28;20196;-66
2021/07/18 03:59:43;;;;;;;1999.90;999.90;;;;;;;20.39;77.66;94829.91;5092262;28;20203;-65
2021/07/18 04:02:10;;;;;;;1999.90;999.90;;;;;;;20.44;77.49;94832.19;5092011;28;20202;-66
2021/07/18 04:04:38;;;;;;;1999.90;999.90;;;;;;;20.38;77.61;94826.50;5092085;28;20199;-65
2021/07/18 04:07:05;;;;;;;1999.90;999.90;;;;;;;20.44;77.40;94834.81;5091771;28;20199;-65
2021/07/18 04:09:32;;;;;;;1999.90;999.90;;;;;;;20.53;77.08;94837.88;5091876;28;20746;-65
2021/07/18 04:11:59;;;;;;;1999.90;999.90;;;;;;;20.60;76.85;94832.63;5092050;28;20273;-65
2021/07/18 04:14:28;;;;;;;1999.90;999.90;;;;;;;20.68;76.97;94839.41;5091678;28;20199;-65
2021/07/18 04:16:55;;;;;;;1999.90;999.90;;;;;;;20.70;76.85;94841.69;5091716;28;20211;-65
2021/07/18 04:19:22;;;;;;;1999.90;999.90;;;;;;;20.85;76.11;94846.66;5091549;28;20223;-65
2021/07/18 04:21:49;;;;;;;1999.90;999.90;;;;;;;20.97;75.53;94850.81;5091606;28;20200;-65
2021/07/18 04:24:16;;;;;;;1999.90;999.90;;;;;;;21.01;75.79;94851.59;5091854;28;20595;-65
2021/07/18 04:26:44;;;;;;;1999.90;999.90;;;;;;;21.12;75.53;94852.34;5091860;28;20279;-65
2021/07/18 04:29:11;;;;;;;1999.90;999.90;;;;;;;21.34;74.56;94856.53;5091746;28;20222;-65
2021/07/18 04:31:40;;;;;;;1999.90;999.90;;;;;;;21.47;73.93;94857.69;5091433;28;20192;-65
2021/07/18 04:34:07;;;;;;;1999.90;999.90;;;;;;;21.86;72.82;94860.31;5091676;28;20222;-65
2021/07/18 04:36:34;;;;;;;1999.90;999.90;;;;;;;22.41;69.57;94865.13;5091624;28;20204;-65
2021/07/18 04:39:01;;;;;;;1999.90;999.90;;;;;;;22.87;68.13;94864.91;5091332;28;20248;-66
2021/07/18 04:41:29;;;;;;;1999.90;999.90;;;;;;;23.51;65.34;94872.50;5091248;28;20199;-66
2021/07/18 04:43:56;;;;;;;1999.90;999.90;;;;;;;24.08;62.69;94864.03;5091650;28;20200;-66
2021/07/18 04:46:24;;;;;;;1999.90;999.90;;;;;;;24.64;59.61;94868.75;5091310;28;20191;-66
2021/07/18 04:48:52;;;;;;;1999.90;999.90;;;;;;;24.88;58.67;94874.94;5091387;28;20200;-65
2021/07/18 04:51:19;;;;;;;1999.90;999.90;;;;;;;25.13;57.53;94871.94;5091019;28;20196;-66
2021/07/18 04:53:46;;;;;;;1999.90;999.90;;;;;;;25.17;57.33;94869.97;5090756;28;20203;-66
2021/07/18 04:56:15;;;;;;;1999.90;999.90;;;;;;;25.23;56.98;94866.47;5091108;28;20195;-66
2021/07/18 04:58:42;;;;;;;1999.90;999.90;;;;;;;25.07;57.58;94873.53;5091142;28;20247;-65
2021/07/18 05:01:09;;;;;;;1999.90;999.90;;;;;;;25.02;57.36;94876.63;5090920;28;20209;-65
2021/07/18 05:03:37;;;;;;;1999.90;999.90;;;;;;;24.84;57.45;94866.97;5091097;28;20199;-66
2021/07/18 05:06:06;;;;;;;1999.90;999.90;;;;;;;24.80;58.04;94871.59;5090869;28;20196;-66
2021/07/18 05:08:33;;;;;;;1999.90;999.90;;;;;;;24.80;58.39;94876.91;5100920;28;20759;-65
2021/07/18 05:11:01;;;;;;;1999.90;999.90;;;;;;;24.83;58.86;94876.09;5111149;28;21001;-65
2021/07/18 05:13:28;;;;;;;1999.90;999.90;;;;;;;24.94;59.98;94872.56;5111341;28;20198;-63
2021/07/18 05:15:55;;;;;;;1999.90;999.90;;;;;;;25.26;58.90;94875.53;5110908;28;20260;-64
2021/07/18 05:18:22;;;;;;;1999.90;999.90;;;;;;;25.36;60.00;94879.94;5110928;28;20230;-63
2021/07/18 05:20:49;;;;;;;1999.90;999.90;;;;;;;25.44;60.56;94884.03;5110872;28;20663;-64
2021/07/18 05:23:18;;;;;;;1999.90;999.90;;;;;;;25.63;59.97;94885.28;5111051;28;20202;-63
2021/07/18 05:25:45;;;;;;;1999.90;999.90;;;;;;;25.80;58.25;94878.94;5111194;28;20206;-64
2021/07/18 05:28:12;;;;;;;1999.90;999.90;;;;;;;25.50;59.08;94890.41;5111200;28;20199;-65
2021/07/18 05:30:40;;;;;;;1999.90;999.90;;;;;;;25.63;57.51;94888.69;5110926;28;20199;-65
2021/07/18 05:33:07;;;;;;;1999.90;999.90;;;;;;;25.79;57.94;94890.72;5110561;28;20294;-65
2021/07/18 05:35:34;;;;;;;1999.90;999.90;;;;;;;25.95;55.92;94885.50;5110839;28;20195;-65
2021/07/18 05:38:01;;;;;;;1999.90;999.90;;;;;;;26.06;55.80;94890.63;5110756;27;20561;-65
2021/07/18 05:40:29;;;;;;;1999.90;999.90;;;;;;;26.29;55.10;94885.31;5110759;28;20199;-65
2021/07/18 05:42:57;;;;;;;1999.90;999.90;;;;;;;26.40;54.56;94888.50;5110811;27;20694;-65
2021/07/18 05:45:24;;;;;;;1999.90;999.90;;;;;;;26.52;54.33;94885.25;5098228;28;20204;-65
2021/07/18 05:47:51;;;;;;;1999.90;999.90;;;;;;;26.65;52.98;94893.38;5090243;28;20192;-65
2021/07/18 05:50:18;;;;;;;1999.90;999.90;;;;;;;26.73;52.50;94886.00;5089852;28;20210;-65
2021/07/18 05:52:46;;;;;;;1999.90;999.90;;;;;;;26.64;53.62;94877.81;5089974;28;20200;-66
2021/07/18 05:55:14;;;;;;;1999.90;999.90;;;;;;;26.69;52.83;94879.97;5089705;28;21071;-65
2021/07/18 05:57:42;;;;;;;1999.90;999.90;;;;;;;26.97;51.94;94887.41;5089768;28;20196;-65
2021/07/18 06:00:12;;;;;;;1999.90;999.90;;;;;;;27.08;50.96;94885.28;5089968;28;20222;-65
2021/07/18 06:02:40;;;;;;;1999.90;999.90;;;;;;;27.04;51.36;94883.84;5089643;28;20667;-65
2021/07/18 06:05:08;;;;;;;1999.90;999.90;;;;;;;27.36;50.68;94883.88;5089752;28;20200;-64
2021/07/18 06:07:36;;;;;;;1999.90;999.90;;;;;;;27.35;51.15;94883.13;5090009;28;20206;-65
2021/07/18 06:10:05;;;;;;;1999.90;999.90;;;;;;;27.42;52.14;94880.31;5089886;28;20269;-65
2021/07/18 06:12:32;;;;;;;1999.90;999.90;;;;;;;27.27;51.80;94876.47;5089557;28;20199;-64
2021/07/18 06:15:01;;;;;;;1999.90;999.90;;;;;;;27.47;51.84;94872.97;5089322;28;20223;-65
2021/07/18 06:17:28;;;;;;;1999.90;999.90;;;;;;;27.59;52.47;94873.09;5089412;28;20208;-66
2021/07/18 06:19:56;;;;;;;1999.90;999.90;;;;;;;27.65;51.89;94873.31;5089397;28;20220;-66
2021/07/18 06:22:23;;;;;;;1999.90;999.90;;;;;;;27.37;51.56;94867.47;5089289;28;20200;-65
2021/07/18 06:24:50;;;;;;;1999.90;999.90;;;;;;;27.39;52.16;94857.13;5089597;28;20196;-65
2021/07/18 06:27:17;;;;;;;1999.90;999.90;;;;;;;27.34;50.93;94860.31;5089342;28;20196;-65
2021/07/18 06:29:44;;;;;;;1999.90;999.90;;;;;;;27.32;51.68;94856.53;5089158;28;20583;-65
2021/07/18 06:32:13;;;;;;;1999.90;999.90;;;;;;;27.33;52.55;94858.03;5089234;28;20206;-65
2021/07/18 06:34:40;;;;;;;1999.90;999.90;;;;;;;27.51;50.87;94860.31;5089551;28;20590;-65
2021/07/18 06:37:07;;;;;;;1999.90;999.90;;;;;;;27.65;52.75;94858.06;5089154;28;20196;-65
2021/07/18 06:39:34;;;;;;;1999.90;999.90;;;;;;;27.65;51.44;94862.66;5089004;28;20227;-65
2021/07/18 06:42:02;;;;;;;1999.90;999.90;;;;;;;27.77;51.42;94859.31;5089125;28;20956;-64
2021/07/18 06:44:29;;;;;;;1999.90;999.90;;;;;;;27.82;51.43;94850.78;5093373;28;20693;-64
2021/07/18 06:46:56;;;;;;;1999.90;999.90;;;;;;;27.74;50.12;94857.50;5109629;28;20195;-65
2021/07/18 06:49:44;;;;;;;1999.90;999.90;;;;;;;27.77;52.22;94848.63;5110643;28;20195;-65
2021/07/18 06:52:12;;;;;;;1999.90;999.90;;;;;;;27.96;50.18;94850.44;5112259;28;20240;-65
2021/07/18 06:54:39;;;;;;;1999.90;999.90;;;;;;;27.94;48.60;94852.78;5109178;28;20231;-64
2021/07/18 06:57:06;;;;;;;1999.90;999.90;;;;;;;28.04;50.09;94845.66;5109361;28;20199;-65
2021/07/18 06:59:34;;;;;;;1999.90;999.90;;;;;;;28.20;49.11;94845.63;5109329;28;20219;-65
2021/07/18 07:02:01;;;;;;;1999.90;999.90;;;;;;;28.09;49.48;94843.22;5109485;28;20620;-64
2021/07/18 07:04:30;;;;;;;1999.90;999.90;;;;;;;28.18;51.51;94838.06;5109622;28;20198;-65
2021/07/18 07:06:57;;;;;;;1999.90;999.90;;;;;;;28.52;49.42;94834.06;5109212;28;20675;-65
2021/07/18 07:09:24;;;;;;;1999.90;999.90;;;;;;;28.72;51.39;94823.22;5109163;28;20191;-65
2021/07/18 07:11:51;;;;;;;1999.90;999.90;;;;;;;28.93;50.68;94834.06;5109533;28;20198;-65
2021/07/18 07:14:19;;;;;;;1999.90;999.90;;;;;;;28.93;47.99;94836.72;5109431;28;20221;-66
2021/07/18 07:16:46;;;;;;;1999.90;999.90;;;;;;;28.96;47.87;94835.88;5092532;28;20203;-65
2021/07/18 07:19:13;;;;;;;1999.90;999.90;;;;;;;28.99;47.50;94832.31;5089044;28;20223;-65
2021/07/18 07:21:41;;;;;;;1999.90;999.90;;;;;;;29.06;47.83;94832.13;5088704;28;20672;-65
2021/07/18 07:24:09;;;;;;;1999.90;999.90;;;;;;;29.21;48.92;94826.34;5088771;28;20200;-65
2021/07/18 07:26:36;;;;;;;1999.90;999.90;;;;;;;29.14;47.68;94829.25;5089940;28;20199;-65
2021/07/18 07:29:04;;;;;;;1999.90;999.90;;;;;;;29.14;47.93;94831.91;5092627;28;20188;-64
2021/07/18 07:31:32;;;;;;;1999.90;999.90;;;;;;;29.18;47.42;94829.88;5092924;28;20292;-65
2021/07/18 07:33:59;;;;;;;1999.90;999.90;;;;;;;29.41;45.70;94824.94;5092515;28;20800;-65
2021/07/18 07:36:26;;;;;;;1999.90;999.90;;;;;;;29.23;47.41;94822.06;5092589;28;20200;-65
2021/07/18 07:38:55;;;;;;;1999.90;999.90;;;;;;;29.29;46.40;94823.00;5092381;28;20311;-66
2021/07/18 07:41:22;;;;;;;1999.90;999.90;;;;;;;29.34;46.79;94819.09;5092850;28;20207;-66
2021/07/18 07:43:53;;;;;;;1999.90;999.90;;;;;;;29.57;46.61;94812.59;5092659;28;20199;-66
2021/07/18 07:46:20;;;;;;;1999.90;999.90;;;;;;;29.71;45.24;94809.44;5112600;28;20187;-66
2021/07/18 07:48:47;;;;;;;1999.90;999.90;;;;;;;29.59;45.78;94807.56;5112970;28;20195;-66
2021/07/18 07:51:14;;;;;;;1999.90;999.90;;;;;;;29.78;45.87;94804.63;5112863;28;20278;-66
2021/07/18 07:53:41;;;;;;;1999.90;999.90;;;;;;;30.21;46.32;94809.28;5112558;28;20202;-66
2021/07/18 07:56:10;;;;;;;1999.90;999.90;;;;;;;30.30;43.50;94806.66;5112490;28;20245;-65
2021/07/18 07:58:37;;;;;;;1999.90;999.90;;;;;;;30.42;41.06;94805.09;5112420;28;20234;-65
2021/07/18 08:01:04;;;;;;;1999.90;999.90;;;;;;;30.55;41.12;94808.47;5112255;28;20586;-66
2021/07/18 08:03:31;;;;;;;1999.90;999.90;;;;;;;30.46;40.61;94799.59;5112699;28;20246;-66
2021/07/18 08:05:59;;;;;;;1999.90;999.90;;;;;;;30.54;41.37;94798.94;5110743;28;20393;-66
2021/07/18 08:08:26;;;;;;;1999.90;999.90;;;;;;;30.55;39.50;94792.38;5112265;28;20199;-65
2021/07/18 08:10:53;;;;;;;1999.90;999.90;;;;;;;30.63;39.71;94801.69;5112609;28;20247;-66
2021/07/18 08:13:22;;;;;;;1999.90;999.90;;;;;;;30.66;40.23;94786.63;5111505;28;20632;-66
2021/07/18 08:15:49;;;;;;;1999.90;999.90;;;;;;;30.59;40.30;94793.00;5111779;28;20207;-66
2021/07/18 08:18:16;;;;;;;1999.90;999.90;;;;;;;30.70;40.25;94790.66;5112550;28;20217;-66
2021/07/18 08:20:44;;;;;;;1999.90;999.90;;;;;;;30.95;40.25;94783.59;5112430;28;20694;-66
2021/07/18 08:23:11;;;;;;;1999.90;999.90;;;;;;;31.04;40.05;94786.34;5111881;28;20198;-67
2021/07/18 08:25:38;;;;;;;1999.90;999.90;;;;;;;31.03;38.36;94779.50;5111882;28;20199;-66
2021/07/18 08:28:06;;;;;;;1999.90;999.90;;;;;;;31.05;40.31;94772.47;5111819;27;20572;-67
2021/07/18 08:30:35;;;;;;;1999.90;999.90;;;;;;;31.35;38.76;94776.28;5111849;28;20191;-66
2021/07/18 08:33:03;;;;;;;1999.90;999.90;;;;;;;31.31;38.17;94777.63;5111829;28;20191;-66
2021/07/18 08:35:30;;;;;;;1999.90;999.90;;;;;;;31.33;37.20;94773.31;5111614;27;20199;-66
2021/07/18 08:37:57;;;;;;;1999.90;999.90;;;;;;;31.26;37.40;94764.78;5111346;28;20195;-66
2021/07/18 08:40:25;;;;;;;1999.90;999.90;;;;;;;31.50;37.66;94763.78;5111476;28;20230;-67
2021/07/18 08:42:52;;;;;;;1999.90;999.90;;;;;;;31.53;37.80;94765.56;5111560;28;20210;-66
2021/07/18 08:45:22;;;;;;;1999.90;999.90;;;;;;;31.46;36.54;94770.47;5111223;28;20682;-66
2021/07/18 08:47:50;;;;;;;1999.90;999.90;;;;;;;31.42;37.01;94767.19;5111418;28;20226;-67
2021/07/18 08:50:18;;;;;;;1999.90;999.90;;;;;;;31.51;36.63;94767.97;5111619;27;20203;-66
2021/07/18 08:52:51;;;;;;;1999.90;999.90;;;;;;;31.50;36.26;94758.41;5111439;28;20593;-67
2021/07/18 08:55:18;;;;;;;1999.90;999.90;;;;;;;31.31;35.73;94762.25;5111365;28;20284;-66
2021/07/18 08:57:45;;;;;;;1999.90;999.90;;;;;;;31.44;36.36;94759.44;5111611;28;20199;-67
2021/07/18 09:00:14;;;;;;;1999.90;999.90;;;;;;;31.53;36.19;94751.41;5111271;28;20223;-66
2021/07/18 09:02:41;;;;;;;1999.90;999.90;;;;;;;31.66;35.67;94756.66;5111466;28;20195;-66
2021/07/18 09:05:11;;;;;;;1999.90;999.90;;;;;;;31.78;35.50;94740.34;5111584;28;20214;-65
2021/07/18 09:07:47;;;;;;;1999.90;999.90;;;;;;;31.85;33.35;94744.69;5111079;27;20191;-66
2021/07/18 09:10:16;;;;;;;1999.90;999.90;;;;;;;31.73;34.76;94746.34;5111220;28;20194;-67
2021/07/18 09:13:02;;;;;;;1999.90;999.90;;;;;;;31.87;35.62;94736.94;5111488;28;20195;-67
2021/07/18 09:15:39;;;;;;;1999.90;999.90;;;;;;;31.91;34.12;94737.53;5109564;28;20222;-67
2021/07/18 09:18:11;;;;;;;1999.90;999.90;;;;;;;32.04;34.06;94738.84;5092409;28;20306;-66
2021/07/18 09:20:44;;;;;;;1999.90;999.90;;;;;;;32.20;33.69;94732.44;5091485;28;20710;-66
2021/07/18 09:23:14;;;;;;;1999.90;999.90;;;;;;;32.24;33.22;94730.31;5091512;28;20194;-67
2021/07/18 09:25:41;;;;;;;1999.90;999.90;;;;;;;32.29;33.73;94724.34;5090597;28;20535;-67
2021/07/18 09:28:17;;;;;;;1999.90;999.90;;;;;;;32.76;34.27;94729.13;5090439;28;20660;-66
2021/07/18 09:30:45;;;;;;;1999.90;999.90;;;;;;;32.81;33.87;94725.81;5090466;28;20262;-67
2021/07/18 09:33:25;;;;;;;1999.90;999.90;;;;;;;32.85;34.12;94718.31;5091210;28;20203;-66
2021/07/18 09:36:10;;;;;;;1999.90;999.90;;;;;;;32.85;34.76;94720.25;5090601;28;20195;-66
2021/07/18 09:38:37;;;;;;;1999.90;999.90;;;;;;;32.73;33.46;94723.91;5090629;28;20188;-66
2021/07/18 09:41:05;;;;;;;1999.90;999.90;;;;;;;32.70;33.24;94714.06;5090754;28;20223;-65
2021/07/18 09:43:32;;;;;;;1999.90;999.90;;;;;;;32.54;33.59;94714.38;5090253;28;20199;-66
2021/07/18 09:46:01;;;;;;;1999.90;999.90;;;;;;;32.60;34.56;94717.94;5107073;28;20580;-67
2021/07/18 09:48:40;;;;;;;1999.90;999.90;;;;;;;32.83;33.13;94722.66;5110157;28;20203;-66
2021/07/18 09:51:11;;;;;;;1999.90;999.90;;;;;;;32.97;33.58;94716.63;5110234;28;20201;-66
2021/07/18 09:53:39;;;;;;;1999.90;999.90;;;;;;;33.22;32.23;94710.81;5110580;28;20187;-66
2021/07/18 09:56:09;;;;;;;1999.90;999.90;;;;;;;33.36;31.07;94705.91;5110201;28;20860;-66
2021/07/18 09:58:38;;;;;;;1999.90;999.90;;;;;;;33.26;30.81;94706.00;5110253;28;20199;-66
2021/07/18 10:01:08;;;;;;;1999.90;999.90;;;;;;;33.23;31.42;94701.50;5109975;28;20214;-66
2021/07/18 10:03:36;;;;;;;1999.90;999.90;;;;;;;33.33;31.16;94698.75;5110380;28;20189;-67
2021/07/18 10:06:10;;;;;;;1999.90;999.90;;;;;;;33.31;30.26;94701.91;5110004;28;20945;-66
2021/07/18 10:08:41;;;;;;;1999.90;999.90;;;;;;;33.26;29.49;94708.69;5110146;28;20191;-66
2021/07/18 10:11:10;;;;;;;1999.90;999.90;;;;;;;33.14;30.27;94693.47;5109861;28;20195;-66
2021/07/18 10:13:38;;;;;;;1999.90;999.90;;;;;;;33.49;29.19;94696.38;5110216;28;20225;-65
2021/07/18 10:16:06;;;;;;;1999.90;999.90;;;;;;;33.43;28.65;94700.16;5110037;28;20305;-66
2021/07/18 10:18:35;;;;;;;1999.90;999.90;;;;;;;33.47;29.04;94703.44;5110136;28;20205;-65
2021/07/18 10:21:02;;;;;;;1999.90;999.90;;;;;;;33.46;28.41;94697.31;5110098;28;20229;-66
2021/07/18 10:23:32;;;;;;;1999.90;999.90;;;;;;;33.43;28.45;94700.91;5109642;28;20228;-66
2021/07/18 10:26:01;;;;;;;1999.90;999.90;;;;;;;33.70;28.00;94694.59;5109673;28;20278;-66
2021/07/18 10:28:28;;;;;;;1999.90;999.90;;;;;;;33.60;28.71;94685.06;5110129;28;20213;-66
2021/07/18 10:30:59;;;;;;;1999.90;999.90;;;;;;;33.67;28.23;94687.41;5109479;28;20203;-66
2021/07/18 10:33:27;;;;;;;1999.90;999.90;;;;;;;33.73;28.36;94688.25;5109817;28;20192;-66
2021/07/18 10:35:56;;;;;;;1999.90;999.90;;;;;;;33.59;27.91;94697.78;5109392;28;20199;-65
2021/07/18 10:38:25;;;;;;;1999.90;999.90;;;;;;;33.68;28.27;94694.28;5109729;28;20202;-66
2021/07/18 10:40:55;;;;;;;1999.90;999.90;;;;;;;33.83;27.32;94702.41;5109523;28;20240;-66
2021/07/18 10:43:36;;;;;;;1999.90;999.90;;;;;;;33.99;27.13;94697.31;5109658;28;20199;-66
2021/07/18 10:46:03;;;;;;;1999.90;999.90;;;;;;;34.10;27.70;94686.72;5092007;28;20188;-66
2021/07/18 10:48:45;;;;;;;1999.90;999.90;;;;;;;34.15;32.12;94693.41;5089260;28;20206;-66
2021/07/18 10:51:21;;;;;;;1999.90;999.90;;;;;;;34.27;32.25;94694.38;5089058;28;20188;-67
2021/07/18 10:53:51;;;;;;;1999.90;999.90;;;;;;;34.07;33.55;94701.09;5088965;28;20180;-68
2021/07/18 10:56:21;;;;;;;1999.90;999.90;;;;;;;34.39;32.32;94704.84;5089427;28;20215;-66
2021/07/18 10:58:53;;;;;;;1999.90;999.90;;;;;;;34.51;31.12;94676.84;5089015;28;20188;-66